createdAt,value
2019-05-09T00:01:16.319Z,0.90
2019-05-09T00:03:46.309Z,0.90
2019-05-09T00:06:16.218Z,0.60
2019-05-09T00:08:46.187Z,0.70
2019-05-09T00:11:16.089Z,0.60
2019-05-09T00:13:46.002Z,2.00
2019-05-09T00:16:15.878Z,0.73
2019-05-09T00:18:45.881Z,0.70
2019-05-09T00:21:20.906Z,2.70
2019-05-09T00:23:50.824Z,0.73
2019-05-09T00:26:20.736Z,0.77
2019-05-09T00:28:53.483Z,0.83
2019-05-09T00:31:33.751Z,1.67
2019-05-09T00:34:05.552Z,0.70
2019-05-09T00:36:35.389Z,0.70
2019-05-09T00:39:06.676Z,1.27
2019-05-09T00:41:36.580Z,0.87
2019-05-09T00:44:13.896Z,0.93
2019-05-09T00:47:13.529Z,0.90
2019-05-09T00:49:43.628Z,0.90
2019-05-09T00:52:14.233Z,1.07
2019-05-09T00:54:44.163Z,1.00
2019-05-09T00:57:33.640Z,0.90
2019-05-09T01:00:08.119Z,2.17
2019-05-09T01:02:38.033Z,0.90
2019-05-09T01:05:09.070Z,0.83
2019-05-09T01:07:39.000Z,0.80
2019-05-09T01:10:10.418Z,0.90
2019-05-09T01:12:40.449Z,1.17
2019-05-09T01:15:13.224Z,0.73
2019-05-09T01:17:44.180Z,0.50
2019-05-09T01:20:14.898Z,0.90
2019-05-09T01:22:44.716Z,0.70
2019-05-09T01:25:14.697Z,0.67
2019-05-09T01:27:44.677Z,0.90
2019-05-09T01:30:14.959Z,0.90
2019-05-09T01:33:03.856Z,0.80
2019-05-09T01:35:34.121Z,0.90
2019-05-09T01:38:04.009Z,0.60
2019-05-09T01:40:33.962Z,1.00
2019-05-09T01:43:04.463Z,1.03
2019-05-09T01:45:34.561Z,0.77
2019-05-09T01:48:04.529Z,1.00
2019-05-09T01:50:34.437Z,1.23
2019-05-09T01:53:04.490Z,1.73
2019-05-09T01:55:53.962Z,0.80
2019-05-09T01:58:23.668Z,0.60
2019-05-09T02:00:54.027Z,0.70
2019-05-09T02:03:25.227Z,0.60
2019-05-09T02:05:55.207Z,0.80
2019-05-09T02:08:25.139Z,0.70
2019-05-09T02:10:55.328Z,1.23
2019-05-09T02:13:25.316Z,0.97
2019-05-09T02:16:08.835Z,0.70
2019-05-09T02:19:04.118Z,1.43
2019-05-09T02:21:34.569Z,0.60
2019-05-09T02:24:04.849Z,0.73
2019-05-09T02:26:34.685Z,1.40
2019-05-09T02:29:04.873Z,0.73
2019-05-09T02:31:35.545Z,0.70
2019-05-09T02:34:05.670Z,0.63
2019-05-09T02:36:38.481Z,0.60
2019-05-09T02:39:09.246Z,0.60
2019-05-09T02:41:59.041Z,0.80
2019-05-09T02:44:11.006Z,0.97
2019-05-09T02:46:49.212Z,0.60
2019-05-09T02:49:19.262Z,0.73
2019-05-09T02:51:49.300Z,0.50
2019-05-09T02:54:19.316Z,0.60
2019-05-09T02:56:49.534Z,0.60
2019-05-09T02:59:38.649Z,0.40
2019-05-09T03:02:34.071Z,0.83
2019-05-09T03:05:04.134Z,0.80
2019-05-09T03:07:49.554Z,0.60
2019-05-09T03:10:22.032Z,1.27
2019-05-09T03:12:52.284Z,1.47
2019-05-09T03:15:22.203Z,0.70
2019-05-09T03:17:52.105Z,0.63
2019-05-09T03:20:44.113Z,1.30
2019-05-09T03:23:14.046Z,2.00
2019-05-09T03:25:44.027Z,0.60
2019-05-09T03:28:34.108Z,1.17
2019-05-09T03:31:04.713Z,0.63
2019-05-09T03:33:35.783Z,0.70
2019-05-09T03:36:07.777Z,1.57
2019-05-09T03:38:37.881Z,0.90
2019-05-09T03:41:08.497Z,0.60
2019-05-09T03:43:38.695Z,0.60
2019-05-09T03:46:18.038Z,0.73
2019-05-09T03:48:50.666Z,0.70
2019-05-09T03:51:20.478Z,0.77
2019-05-09T03:53:50.385Z,0.70
2019-05-09T03:56:24.367Z,0.70
2019-05-09T03:58:54.243Z,0.70
2019-05-09T04:01:24.164Z,0.60
2019-05-09T04:03:54.173Z,0.70
2019-05-09T04:06:25.047Z,0.60
2019-05-09T04:08:54.953Z,0.60
2019-05-09T04:11:24.881Z,0.83
2019-05-09T04:14:00.634Z,2.67
2019-05-09T04:16:30.495Z,2.00
2019-05-09T04:19:00.348Z,0.93
2019-05-09T04:21:30.184Z,0.83
2019-05-09T04:24:00.095Z,0.90
2019-05-09T04:26:45.059Z,1.23
2019-05-09T04:29:15.139Z,0.90
2019-05-09T04:31:45.060Z,0.90
2019-05-09T04:34:14.910Z,0.90
2019-05-09T04:36:44.886Z,0.93
2019-05-09T04:39:21.045Z,1.10
2019-05-09T04:41:48.643Z,0.90
2019-05-09T04:44:29.390Z,0.90
2019-05-09T04:47:03.374Z,1.03
2019-05-09T04:49:39.584Z,1.07
2019-05-09T04:52:02.453Z,1.93
2019-05-09T04:54:32.460Z,10.17
2019-05-09T04:57:02.418Z,2.20
2019-05-09T04:59:32.355Z,12.00
2019-05-09T05:02:21.358Z,16.13
2019-05-09T05:04:51.323Z,10.80
2019-05-09T05:07:21.445Z,7.40
2019-05-09T05:09:51.339Z,10.43
2019-05-09T05:12:21.186Z,13.90
2019-05-09T05:14:51.041Z,9.60
2019-05-09T05:17:21.013Z,45.97
2019-05-09T05:19:51.406Z,19.40
2019-05-09T05:22:30.514Z,16.00
2019-05-09T05:25:02.777Z,21.30
2019-05-09T05:27:32.645Z,19.73
2019-05-09T05:30:02.682Z,11.87
2019-05-09T05:32:54.438Z,2.93
2019-05-09T05:35:42.785Z,13.80
2019-05-09T05:38:12.672Z,7.30
2019-05-09T05:40:46.080Z,5.13
2019-05-09T05:43:14.363Z,3.00
2019-05-09T05:46:03.220Z,2.37
2019-05-09T05:48:34.239Z,1.63
2019-05-09T05:51:04.259Z,2.17
2019-05-09T05:53:34.185Z,1.30
2019-05-09T05:56:04.193Z,4.67
2019-05-09T05:58:34.174Z,1.37
2019-05-09T06:01:04.892Z,2.53
2019-05-09T06:03:34.886Z,6.57
2019-05-09T06:06:04.892Z,1.30
2019-05-09T06:08:34.832Z,2.27
2019-05-09T06:11:08.554Z,3.13
2019-05-09T06:13:37.962Z,1.13
2019-05-09T06:16:08.726Z,2.07
2019-05-09T06:18:38.708Z,2.00
2019-05-09T06:21:09.007Z,2.30
2019-05-09T06:23:39.083Z,1.97
2019-05-09T06:26:10.307Z,4.40
2019-05-09T06:28:40.411Z,2.40
2019-05-09T06:31:10.326Z,2.53
2019-05-09T06:33:46.089Z,1.50
2019-05-09T06:36:12.141Z,2.23
2019-05-09T06:38:42.130Z,1.20
2019-05-09T06:41:12.311Z,2.77
2019-05-09T06:43:44.570Z,1.93
2019-05-09T06:46:30.327Z,0.87
2019-05-09T06:49:20.118Z,1.50
2019-05-09T06:51:33.835Z,2.53
2019-05-09T06:54:03.836Z,1.13
2019-05-09T06:56:33.757Z,2.30
2019-05-09T06:59:03.694Z,1.40
2019-05-09T07:01:38.907Z,0.77
2019-05-09T07:04:13.538Z,0.67
2019-05-09T07:06:48.308Z,0.80
2019-05-09T07:09:27.862Z,0.80
2019-05-09T07:11:58.625Z,1.00
2019-05-09T07:14:33.379Z,1.20
2019-05-09T07:17:01.545Z,1.20
2019-05-09T07:19:31.525Z,1.00
2019-05-09T07:22:09.246Z,2.10
2019-05-09T07:25:06.446Z,0.90
2019-05-09T07:27:34.041Z,1.70
2019-05-09T07:30:11.620Z,0.60
2019-05-09T07:32:48.903Z,0.70
2019-05-09T07:35:18.841Z,2.07
2019-05-09T07:37:48.951Z,3.17
2019-05-09T07:40:19.033Z,2.37
2019-05-09T07:42:49.076Z,1.83
2019-05-09T07:45:19.002Z,0.50
2019-05-09T07:47:50.031Z,2.30
2019-05-09T07:50:20.011Z,0.97
2019-05-09T07:52:49.913Z,1.43
2019-05-09T07:55:19.883Z,0.93
2019-05-09T07:57:55.150Z,0.83
2019-05-09T08:00:32.047Z,1.27
2019-05-09T08:03:03.260Z,1.07
2019-05-09T08:05:34.420Z,0.50
2019-05-09T08:08:08.019Z,0.60
2019-05-09T08:10:38.613Z,2.30
2019-05-09T08:13:11.821Z,1.43
2019-05-09T08:15:40.037Z,1.53
2019-05-09T08:18:09.958Z,1.40
2019-05-09T08:20:40.771Z,2.00
2019-05-09T08:23:10.882Z,0.60
2019-05-09T08:25:40.755Z,1.83
2019-05-09T08:28:10.738Z,0.83
2019-05-09T08:30:40.687Z,0.77
2019-05-09T08:33:10.672Z,0.80
2019-05-09T08:35:40.607Z,1.27
2019-05-09T08:38:10.538Z,1.53
2019-05-09T08:40:40.467Z,0.77
2019-05-09T08:43:10.306Z,0.60
2019-05-09T08:45:40.231Z,0.83
2019-05-09T08:48:10.156Z,1.50
2019-05-09T08:50:52.762Z,1.00
2019-05-09T08:53:22.705Z,1.00
2019-05-09T08:55:52.647Z,1.03
2019-05-09T08:58:22.601Z,0.83
2019-05-09T09:00:52.470Z,0.73
2019-05-09T09:03:22.364Z,0.60
2019-05-09T09:05:52.292Z,1.70
2019-05-09T09:08:22.227Z,1.80
2019-05-09T09:10:52.259Z,1.97
2019-05-09T09:13:22.251Z,1.87
2019-05-09T09:16:08.497Z,2.27
2019-05-09T09:18:23.895Z,0.57
2019-05-09T09:20:53.883Z,0.60
2019-05-09T09:23:39.040Z,1.57
2019-05-09T09:25:58.186Z,0.60
2019-05-09T09:28:27.654Z,0.53
2019-05-09T09:30:59.135Z,2.47
2019-05-09T09:33:29.235Z,2.17
2019-05-09T09:35:59.324Z,1.07
2019-05-09T09:38:29.322Z,1.03
2019-05-09T09:40:59.329Z,0.40
2019-05-09T09:43:29.179Z,1.17
2019-05-09T09:46:10.986Z,1.03
2019-05-09T09:48:30.770Z,1.03
2019-05-09T09:51:00.737Z,0.87
2019-05-09T09:53:30.839Z,0.97
2019-05-09T09:56:01.006Z,0.63
2019-05-09T09:58:30.974Z,1.90
2019-05-09T10:01:20.240Z,1.50
2019-05-09T10:03:58.129Z,1.77
2019-05-09T10:06:28.427Z,1.03
2019-05-09T10:08:58.975Z,0.67
2019-05-09T10:11:29.091Z,1.70
2019-05-09T10:13:59.267Z,2.30
2019-05-09T10:16:51.076Z,0.80
2019-05-09T10:19:32.375Z,3.30
2019-05-09T10:22:03.170Z,1.00
2019-05-09T10:24:33.171Z,1.70
2019-05-09T10:27:08.806Z,1.80
2019-05-09T10:29:38.848Z,1.57
2019-05-09T10:32:12.571Z,2.03
2019-05-09T10:34:42.599Z,1.10
2019-05-09T10:37:12.675Z,2.23
2019-05-09T10:39:42.656Z,1.33
2019-05-09T10:42:28.775Z,1.47
2019-05-09T10:45:20.890Z,1.87
2019-05-09T10:47:50.747Z,1.60
2019-05-09T10:50:20.790Z,2.10
2019-05-09T10:52:50.615Z,1.23
2019-05-09T10:55:20.614Z,1.37
2019-05-09T10:57:52.750Z,3.40
2019-05-09T11:00:22.551Z,2.33
2019-05-09T11:02:52.503Z,2.17
2019-05-09T11:05:22.431Z,1.90
2019-05-09T11:07:52.272Z,1.50
2019-05-09T11:10:28.337Z,3.37
2019-05-09T11:12:54.011Z,5.33
2019-05-09T11:15:24.007Z,2.07
2019-05-09T11:17:53.844Z,1.33
2019-05-09T11:20:23.762Z,1.07
2019-05-09T11:22:53.742Z,1.23
2019-05-09T11:25:23.666Z,1.03
2019-05-09T11:28:06.978Z,2.17
2019-05-09T11:30:25.231Z,1.47
2019-05-09T11:32:55.140Z,1.57
2019-05-09T11:35:26.042Z,3.90
2019-05-09T11:37:58.746Z,0.83
2019-05-09T11:40:28.152Z,1.80
2019-05-09T11:42:58.316Z,2.07
2019-05-09T11:45:28.309Z,0.70
2019-05-09T11:47:58.490Z,0.40
2019-05-09T11:50:28.532Z,1.53
2019-05-09T11:52:59.943Z,1.60
2019-05-09T11:55:36.008Z,2.47
2019-05-09T11:58:01.663Z,2.47
2019-05-09T12:00:31.640Z,0.77
2019-05-09T12:03:01.629Z,0.50
2019-05-09T12:05:31.477Z,1.63
2019-05-09T12:08:01.318Z,0.87
2019-05-09T12:10:31.457Z,1.63
2019-05-09T12:13:01.373Z,0.47
2019-05-09T12:15:31.297Z,1.07
2019-05-09T12:18:07.679Z,3.93
2019-05-09T12:20:33.186Z,0.63
2019-05-09T12:23:04.246Z,0.50
2019-05-09T12:25:34.168Z,0.47
2019-05-09T12:28:04.468Z,0.40
2019-05-09T12:30:34.487Z,0.50
2019-05-09T12:33:04.432Z,0.77
2019-05-09T12:35:34.427Z,0.43
2019-05-09T12:38:23.591Z,0.77
2019-05-09T12:40:53.581Z,1.30
2019-05-09T12:43:23.558Z,0.60
2019-05-09T12:45:53.609Z,0.30
2019-05-09T12:48:23.542Z,0.30
2019-05-09T12:50:53.541Z,0.10
2019-05-09T12:53:23.332Z,0.77
2019-05-09T12:55:59.988Z,0.93
2019-05-09T12:58:30.621Z,0.30
2019-05-09T13:01:00.599Z,0.50
2019-05-09T13:03:30.616Z,1.23
2019-05-09T13:06:00.603Z,0.97
2019-05-09T13:08:30.774Z,0.33
2019-05-09T13:11:02.578Z,0.40
2019-05-09T13:13:32.451Z,0.40
2019-05-09T13:16:14.245Z,1.27
2019-05-09T13:19:22.038Z,2.77
2019-05-09T13:21:51.954Z,1.93
2019-05-09T13:24:21.935Z,0.97
2019-05-09T13:26:51.890Z,0.67
2019-05-09T13:29:21.919Z,1.67
2019-05-09T13:31:51.780Z,0.30
2019-05-09T13:34:24.917Z,0.70
2019-05-09T13:36:54.886Z,1.33
2019-05-09T13:39:24.940Z,0.73
2019-05-09T13:41:54.872Z,0.87
2019-05-09T13:44:24.904Z,0.30
2019-05-09T13:46:54.750Z,1.10
2019-05-09T13:49:24.658Z,0.63
2019-05-09T13:52:01.300Z,0.70
2019-05-09T13:54:28.566Z,3.57
2019-05-09T13:57:01.295Z,0.50
2019-05-09T13:59:30.460Z,0.83
2019-05-09T14:02:00.383Z,3.50
2019-05-09T14:04:30.408Z,0.37
2019-05-09T14:07:00.336Z,0.30
2019-05-09T14:09:30.240Z,0.20
2019-05-09T14:12:00.140Z,1.87
2019-05-09T14:14:30.107Z,0.90
2019-05-09T14:16:59.959Z,1.90
2019-05-09T14:19:40.704Z,1.40
2019-05-09T14:22:01.719Z,0.30
2019-05-09T14:24:31.504Z,1.17
2019-05-09T14:27:01.375Z,1.37
2019-05-09T14:29:32.307Z,3.03
2019-05-09T14:32:05.019Z,1.13
2019-05-09T14:34:33.829Z,0.60
2019-05-09T14:37:03.741Z,2.47
2019-05-09T14:39:33.679Z,5.50
2019-05-09T14:42:03.687Z,2.53
2019-05-09T14:44:33.615Z,1.80
2019-05-09T14:47:03.612Z,0.50
2019-05-09T14:49:41.425Z,1.10
2019-05-09T14:52:05.242Z,0.90
2019-05-09T14:54:35.145Z,1.23
2019-05-09T14:57:05.132Z,0.53
2019-05-09T14:59:35.135Z,0.83
2019-05-09T15:02:05.196Z,0.80
2019-05-09T15:04:35.221Z,0.40
2019-05-09T15:07:07.482Z,0.70
2019-05-09T15:09:36.883Z,1.37
2019-05-09T15:12:06.880Z,2.10
2019-05-09T15:14:38.335Z,0.47
2019-05-09T15:17:08.939Z,1.50
2019-05-09T15:19:38.935Z,0.60
2019-05-09T15:22:09.137Z,0.47
2019-05-09T15:24:39.131Z,1.60
2019-05-09T15:27:09.039Z,1.70
2019-05-09T15:29:39.234Z,0.30
2019-05-09T15:32:12.223Z,0.77
2019-05-09T15:34:41.299Z,0.37
2019-05-09T15:37:11.263Z,0.50
2019-05-09T15:39:41.401Z,0.73
2019-05-09T15:42:11.348Z,0.40
2019-05-09T15:44:41.213Z,0.70
2019-05-09T15:47:18.174Z,0.63
2019-05-09T15:49:49.415Z,1.50
2019-05-09T15:52:19.540Z,0.47
2019-05-09T15:54:49.575Z,0.70
2019-05-09T15:57:19.612Z,0.60
2019-05-09T15:59:49.620Z,1.33
2019-05-09T16:02:19.472Z,2.20
2019-05-09T16:04:49.472Z,1.10
2019-05-09T16:07:19.409Z,0.40
2019-05-09T16:09:49.403Z,0.43
2019-05-09T16:12:19.382Z,2.10
2019-05-09T16:14:49.623Z,0.70
2019-05-09T16:17:19.560Z,0.53
2019-05-09T16:19:49.514Z,1.03
2019-05-09T16:22:19.547Z,1.70
2019-05-09T16:24:49.462Z,3.73
2019-05-09T16:27:19.378Z,1.13
2019-05-09T16:29:49.389Z,2.83
2019-05-09T16:32:19.441Z,0.50
2019-05-09T16:34:49.419Z,0.57
2019-05-09T16:37:19.362Z,1.47
2019-05-09T16:39:49.585Z,0.70
2019-05-09T16:42:19.555Z,2.43
2019-05-09T16:44:49.761Z,3.53
2019-05-09T16:47:22.758Z,2.13
2019-05-09T16:50:13.335Z,1.80
2019-05-09T16:52:48.785Z,0.93
2019-05-09T16:55:24.270Z,1.90
2019-05-09T16:57:54.286Z,3.57
2019-05-09T17:00:40.927Z,2.00
2019-05-09T17:03:13.142Z,3.27
2019-05-09T17:05:43.471Z,3.13
2019-05-09T17:08:13.603Z,0.73
2019-05-09T17:10:44.331Z,4.27
2019-05-09T17:13:14.345Z,2.73
2019-05-09T17:15:44.591Z,1.67
2019-05-09T17:18:14.697Z,4.17
2019-05-09T17:21:18.297Z,1.53
2019-05-09T17:23:42.082Z,0.90
2019-05-09T17:26:12.096Z,2.27
2019-05-09T17:28:42.144Z,4.83
2019-05-09T17:31:12.373Z,1.10
2019-05-09T17:33:42.378Z,1.70
2019-05-09T17:36:12.231Z,1.77
2019-05-09T17:38:43.511Z,1.07
2019-05-09T17:41:14.366Z,2.47
2019-05-09T17:43:44.287Z,2.10
2019-05-09T17:46:14.280Z,1.50
2019-05-09T17:48:44.295Z,0.80
2019-05-09T17:51:14.344Z,0.57
2019-05-09T17:53:51.465Z,0.87
2019-05-09T17:56:15.961Z,0.73
2019-05-09T17:58:45.874Z,2.10
2019-05-09T18:01:17.972Z,0.80
2019-05-09T18:03:48.235Z,0.97
2019-05-09T18:06:19.096Z,0.60
2019-05-09T18:08:49.351Z,0.50
2019-05-09T18:11:19.568Z,1.80
2019-05-09T18:13:49.566Z,1.27
2019-05-09T18:16:19.559Z,0.80
2019-05-09T18:18:51.219Z,0.93
2019-05-09T18:21:21.257Z,0.60
2019-05-09T18:23:51.281Z,0.60
2019-05-09T18:26:21.225Z,0.80
2019-05-09T18:28:51.223Z,1.87
2019-05-09T18:31:23.034Z,1.17
2019-05-09T18:33:58.272Z,0.73
2019-05-09T18:36:28.357Z,1.40
2019-05-09T18:38:58.655Z,2.33
2019-05-09T18:41:28.736Z,0.90
2019-05-09T18:43:58.751Z,1.03
2019-05-09T18:46:28.600Z,0.60
2019-05-09T18:48:58.516Z,3.33
2019-05-09T18:51:28.861Z,0.60
2019-05-09T18:53:59.431Z,1.53
2019-05-09T18:56:29.432Z,2.10
2019-05-09T18:59:00.835Z,1.33
2019-05-09T19:01:30.850Z,0.90
2019-05-09T19:04:00.766Z,1.80
2019-05-09T19:06:30.778Z,0.70
2019-05-09T19:09:00.831Z,1.73
2019-05-09T19:11:31.153Z,2.00
2019-05-09T19:14:01.625Z,2.40
2019-05-09T19:16:47.212Z,1.80
2019-05-09T19:19:27.512Z,1.87
2019-05-09T19:22:04.714Z,0.90
2019-05-09T19:24:31.433Z,1.87
2019-05-09T19:27:01.464Z,0.77
2019-05-09T19:29:31.387Z,0.93
2019-05-09T19:32:01.316Z,1.73
2019-05-09T19:34:31.394Z,1.80
2019-05-09T19:37:01.396Z,1.00
2019-05-09T19:39:31.465Z,0.57
2019-05-09T19:42:01.322Z,0.90
2019-05-09T19:44:31.237Z,0.70
2019-05-09T19:47:01.858Z,1.00
2019-05-09T19:49:31.955Z,1.30
2019-05-09T19:52:01.779Z,1.20
2019-05-09T19:54:31.619Z,2.20
2019-05-09T19:57:01.558Z,1.17
2019-05-09T19:59:31.488Z,1.33
2019-05-09T20:02:01.437Z,1.07
2019-05-09T20:04:31.279Z,0.60
2019-05-09T20:07:01.119Z,1.13
2019-05-09T20:09:45.659Z,3.03
2019-05-09T20:12:25.414Z,0.60
2019-05-09T20:14:55.336Z,1.17
2019-05-09T20:17:25.238Z,1.03
2019-05-09T20:19:55.155Z,1.10
2019-05-09T20:22:26.239Z,1.30
2019-05-09T20:24:56.158Z,3.00
2019-05-09T20:27:26.049Z,1.80
2019-05-09T20:29:55.967Z,1.00
2019-05-09T20:32:25.879Z,0.70
2019-05-09T20:34:55.831Z,2.00
2019-05-09T20:37:25.946Z,0.70
2019-05-09T20:39:55.939Z,1.43
2019-05-09T20:42:26.151Z,0.60
2019-05-09T20:44:56.258Z,1.63
2019-05-09T20:47:26.379Z,1.50
2019-05-09T20:49:56.488Z,0.43
2019-05-09T20:52:26.592Z,1.50
2019-05-09T20:54:56.629Z,1.73
2019-05-09T20:57:26.681Z,0.57
2019-05-09T20:59:56.788Z,0.77
2019-05-09T21:02:26.968Z,1.20
2019-05-09T21:04:56.997Z,1.07
2019-05-09T21:07:27.112Z,0.70
2019-05-09T21:09:57.140Z,0.70
2019-05-09T21:12:27.328Z,0.80
2019-05-09T21:14:57.657Z,0.63
2019-05-09T21:17:27.812Z,0.77
2019-05-09T21:19:58.993Z,1.17
2019-05-09T21:22:29.084Z,0.90
2019-05-09T21:24:59.252Z,0.93
2019-05-09T21:27:29.470Z,0.60
2019-05-09T21:29:59.579Z,1.40
2019-05-09T21:32:29.635Z,2.90
2019-05-09T21:34:59.576Z,0.73
2019-05-09T21:37:29.496Z,0.97
2019-05-09T21:39:59.526Z,0.90
2019-05-09T21:42:29.513Z,1.47
2019-05-09T21:44:59.339Z,0.90
2019-05-09T21:47:29.220Z,1.77
2019-05-09T21:49:59.145Z,1.83
2019-05-09T21:52:29.123Z,1.17
2019-05-09T21:54:59.026Z,1.27
2019-05-09T21:57:29.022Z,0.77
2019-05-09T21:59:59.819Z,0.90
2019-05-09T22:02:29.884Z,1.73
2019-05-09T22:04:59.867Z,0.87
2019-05-09T22:07:29.797Z,1.50
2019-05-09T22:09:59.701Z,1.00
2019-05-09T22:12:29.699Z,0.77
2019-05-09T22:15:03.527Z,0.73
2019-05-09T22:17:38.250Z,1.37
2019-05-09T22:20:10.477Z,1.57
2019-05-09T22:22:40.403Z,0.70
2019-05-09T22:25:11.113Z,0.77
2019-05-09T22:27:41.027Z,0.77
2019-05-09T22:30:12.210Z,0.60
2019-05-09T22:32:42.404Z,0.70
2019-05-09T22:35:12.847Z,0.80
2019-05-09T22:37:42.817Z,2.07
2019-05-09T22:40:14.032Z,0.73
2019-05-09T22:42:44.098Z,0.80
2019-05-09T22:45:14.635Z,0.93
2019-05-09T22:47:44.606Z,1.53
2019-05-09T22:50:14.603Z,1.00
2019-05-09T22:52:44.558Z,1.57
2019-05-09T22:55:14.810Z,1.00
2019-05-09T22:57:44.770Z,0.60
2019-05-09T23:00:16.462Z,1.07
2019-05-09T23:02:46.433Z,1.00
2019-05-09T23:05:16.414Z,1.23
2019-05-09T23:07:46.414Z,2.30
2019-05-09T23:10:17.622Z,1.13
2019-05-09T23:12:47.519Z,0.87
2019-05-09T23:15:19.032Z,0.90
2019-05-09T23:17:48.945Z,1.03
2019-05-09T23:20:37.919Z,2.07
2019-05-09T23:23:25.635Z,0.70
2019-05-09T23:25:55.542Z,1.00
2019-05-09T23:28:27.411Z,0.80
2019-05-09T23:30:59.551Z,0.93
2019-05-09T23:33:32.178Z,1.70
2019-05-09T23:36:02.020Z,1.20
2019-05-09T23:38:32.016Z,1.20
2019-05-09T23:41:02.029Z,2.70
2019-05-09T23:43:32.003Z,1.03
2019-05-09T23:46:01.950Z,0.63
2019-05-09T23:48:31.819Z,1.17
2019-05-09T23:51:01.707Z,1.50
2019-05-09T23:53:37.284Z,2.43
2019-05-09T23:56:25.076Z,1.00
2019-05-09T23:59:12.871Z,1.00
